sensor_id;sensor_type;location;lat;lon;timestamp;pressure;altitude;pressure_sealevel;temperature;humidity
35704;BME280;21820;51.112;13.762;2023-06-22T00:02:22;99715.50;;;25.37;59.32
35704;BME280;21820;51.112;13.762;2023-06-22T00:04:47;99701.63;;;25.27;59.58
35704;BME280;21820;51.112;13.762;2023-06-22T00:07:12;99725.88;;;25.39;59.59
35704;BME280;21820;51.112;13.762;2023-06-22T00:09:38;99728.50;;;25.39;58.83
35704;BME280;21820;51.112;13.762;2023-06-22T00:12:03;99725.88;;;25.39;59.57
35704;BME280;21820;51.112;13.762;2023-06-22T00:14:29;99719.97;;;25.37;58.84
35704;BME280;21820;51.112;13.762;2023-06-22T00:16:54;99719.28;;;25.35;59.25
35704;BME280;21820;51.112;13.762;2023-06-22T00:19:22;99718.97;;;25.38;59.16
35704;BME280;21820;51.112;13.762;2023-06-22T00:21:48;99722.59;;;25.37;59.13
35704;BME280;21820;51.112;13.762;2023-06-22T00:24:18;99725.34;;;25.35;59.24
35704;BME280;21820;51.112;13.762;2023-06-22T00:26:43;99737.38;;;25.38;58.72
35704;BME280;21820;51.112;13.762;2023-06-22T00:29:09;99728.97;;;25.34;59.17
35704;BME280;21820;51.112;13.762;2023-06-22T00:31:34;99750.56;;;25.38;59.48
35704;BME280;21820;51.112;13.762;2023-06-22T00:33:59;99747.38;;;25.34;59.26
35704;BME280;21820;51.112;13.762;2023-06-22T00:36:25;99749.88;;;25.36;58.67
35704;BME280;21820;51.112;13.762;2023-06-22T00:38:50;99747.09;;;25.37;59.09
35704;BME280;21820;51.112;13.762;2023-06-22T00:41:16;99745.28;;;25.38;59.27
35704;BME280;21820;51.112;13.762;2023-06-22T00:43:42;99751.69;;;25.35;58.93
35704;BME280;21820;51.112;13.762;2023-06-22T00:46:07;99742.81;;;25.36;58.93
35704;BME280;21820;51.112;13.762;2023-06-22T00:48:33;99746.53;;;25.34;59.11
35704;BME280;21820;51.112;13.762;2023-06-22T00:50:59;99745.63;;;25.35;59.11
35704;BME280;21820;51.112;13.762;2023-06-22T00:53:25;99737.84;;;25.33;59.10
35704;BME280;21820;51.112;13.762;2023-06-22T00:55:50;99727.31;;;25.33;59.02
35704;BME280;21820;51.112;13.762;2023-06-22T00:58:19;99733.38;;;25.34;58.78
35704;BME280;21820;51.112;13.762;2023-06-22T01:00:47;99736.72;;;25.36;58.86
35704;BME280;21820;51.112;13.762;2023-06-22T01:03:13;99741.44;;;25.32;58.87
35704;BME280;21820;51.112;13.762;2023-06-22T01:05:39;99738.38;;;25.37;59.42
35704;BME280;21820;51.112;13.762;2023-06-22T01:10:57;99741.66;;;25.39;59.23
35704;BME280;21820;51.112;13.762;2023-06-22T01:13:35;99745.28;;;25.38;58.92
35704;BME280;21820;51.112;13.762;2023-06-22T01:18:35;99740.34;;;25.35;59.11
35704;BME280;21820;51.112;13.762;2023-06-22T01:21:06;99739.47;;;25.34;59.20
35704;BME280;21820;51.112;13.762;2023-06-22T01:26:17;99736.84;;;25.34;59.68
35704;BME280;21820;51.112;13.762;2023-06-22T01:28:53;99731.75;;;25.33;59.20
35704;BME280;21820;51.112;13.762;2023-06-22T01:31:24;99728.13;;;25.34;59.10
35704;BME280;21820;51.112;13.762;2023-06-22T01:33:55;99734.38;;;25.33;58.87
35704;BME280;21820;51.112;13.762;2023-06-22T01:36:21;99728.13;;;25.34;59.32
35704;BME280;21820;51.112;13.762;2023-06-22T01:38:47;99729.84;;;25.43;59.18
35704;BME280;21820;51.112;13.762;2023-06-22T01:41:13;99718.44;;;25.34;59.14
35704;BME280;21820;51.112;13.762;2023-06-22T01:43:39;99726.50;;;25.33;59.19
35704;BME280;21820;51.112;13.762;2023-06-22T01:46:05;99732.44;;;25.35;58.89
35704;BME280;21820;51.112;13.762;2023-06-22T01:48:31;99732.59;;;25.33;59.23
35704;BME280;21820;51.112;13.762;2023-06-22T01:50:57;99731.75;;;25.33;59.37
35704;BME280;21820;51.112;13.762;2023-06-22T01:53:23;99731.75;;;25.33;59.51
35704;BME280;21820;51.112;13.762;2023-06-22T01:55:49;99721.56;;;25.30;59.52
35704;BME280;21820;51.112;13.762;2023-06-22T01:58:15;99728.28;;;25.32;58.99
35704;BME280;21820;51.112;13.762;2023-06-22T02:00:44;99725.81;;;25.31;59.09
35704;BME280;21820;51.112;13.762;2023-06-22T02:03:22;99728.97;;;25.34;58.74
35704;BME280;21820;51.112;13.762;2023-06-22T02:06:03;99709.84;;;25.24;59.00
35704;BME280;21820;51.112;13.762;2023-06-22T02:08:31;99730.75;;;25.34;59.35
35704;BME280;21820;51.112;13.762;2023-06-22T02:10:57;99723.84;;;25.33;58.80
35704;BME280;21820;51.112;13.762;2023-06-22T02:13:25;99724.84;;;25.32;58.61
35704;BME280;21820;51.112;13.762;2023-06-22T02:15:51;99725.66;;;25.32;58.96
35704;BME280;21820;51.112;13.762;2023-06-22T02:18:16;99722.22;;;25.32;58.64
35704;BME280;21820;51.112;13.762;2023-06-22T02:20:42;99721.38;;;25.31;59.25
35704;BME280;21820;51.112;13.762;2023-06-22T02:23:07;99717.59;;;25.34;59.02
35704;BME280;21820;51.112;13.762;2023-06-22T02:25:33;99721.22;;;25.33;59.07
35704;BME280;21820;51.112;13.762;2023-06-22T02:27:59;99726.50;;;25.33;59.46
35704;BME280;21820;51.112;13.762;2023-06-22T02:30:24;99709.69;;;25.26;59.37
35704;BME280;21820;51.112;13.762;2023-06-22T02:32:49;99716.78;;;25.33;59.08
35704;BME280;21820;51.112;13.762;2023-06-22T02:35:30;99714.84;;;25.35;59.06
35704;BME280;21820;51.112;13.762;2023-06-22T02:38:01;99721.22;;;25.33;59.03
35704;BME280;21820;51.112;13.762;2023-06-22T02:40:27;99723.75;;;25.42;58.88
35704;BME280;21820;51.112;13.762;2023-06-22T02:42:52;99729.81;;;25.35;59.16
35704;BME280;21820;51.112;13.762;2023-06-22T02:45:18;99721.56;;;25.30;58.95
35704;BME280;21820;51.112;13.762;2023-06-22T02:47:43;99733.38;;;25.34;59.10
35704;BME280;21820;51.112;13.762;2023-06-22T02:50:09;99738.66;;;25.34;59.28
35704;BME280;21820;51.112;13.762;2023-06-22T02:52:34;99741.44;;;25.32;59.22
35704;BME280;21820;51.112;13.762;2023-06-22T02:55:00;99747.72;;;25.31;58.78
35704;BME280;21820;51.112;13.762;2023-06-22T02:57:25;99738.47;;;25.27;58.58
35704;BME280;21820;51.112;13.762;2023-06-22T02:59:50;99747.72;;;25.31;58.55
35704;BME280;21820;51.112;13.762;2023-06-22T03:02:16;99745.91;;;25.32;58.74
35704;BME280;21820;51.112;13.762;2023-06-22T03:04:41;99742.44;;;25.31;58.86
35704;BME280;21820;51.112;13.762;2023-06-22T03:07:07;99745.06;;;25.31;58.90
35704;BME280;21820;51.112;13.762;2023-06-22T03:09:33;99738.97;;;25.31;59.21
35704;BME280;21820;51.112;13.762;2023-06-22T03:11:58;99743.28;;;25.32;58.93
35704;BME280;21820;51.112;13.762;2023-06-22T03:14:23;99742.28;;;25.33;58.52
35704;BME280;21820;51.112;13.762;2023-06-22T03:16:49;99744.06;;;25.32;58.76
35704;BME280;21820;51.112;13.762;2023-06-22T03:19:14;99729.44;;;25.30;58.76
35704;BME280;21820;51.112;13.762;2023-06-22T03:21:40;99726.66;;;25.31;58.77
35704;BME280;21820;51.112;13.762;2023-06-22T03:24:08;99719.59;;;25.32;58.50
35704;BME280;21820;51.112;13.762;2023-06-22T03:26:34;99707.56;;;25.29;59.26
35704;BME280;21820;51.112;13.762;2023-06-22T03:28:59;99713.50;;;25.31;58.76
35704;BME280;21820;51.112;13.762;2023-06-22T03:31:25;99702.13;;;25.31;58.51
35704;BME280;21820;51.112;13.762;2023-06-22T03:33:50;99697.69;;;25.31;58.81
35704;BME280;21820;51.112;13.762;2023-06-22T03:36:17;99698.66;;;25.30;59.07
35704;BME280;21820;51.112;13.762;2023-06-22T03:38:49;99680.41;;;25.21;58.91
35704;BME280;21820;51.112;13.762;2023-06-22T03:41:15;99707.56;;;25.29;59.03
35704;BME280;21820;51.112;13.762;2023-06-22T03:43:40;99713.66;;;25.30;58.93
35704;BME280;21820;51.112;13.762;2023-06-22T03:46:06;99687.31;;;25.22;59.26
35704;BME280;21820;51.112;13.762;2023-06-22T03:48:31;99698.81;;;25.29;58.95
35704;BME280;21820;51.112;13.762;2023-06-22T03:50:59;99709.06;;;25.32;58.71
35704;BME280;21820;51.112;13.762;2023-06-22T03:53:24;99711.03;;;25.30;58.42
35704;BME280;21820;51.112;13.762;2023-06-22T03:55:51;99704.09;;;25.29;58.64
35704;BME280;21820;51.112;13.762;2023-06-22T03:58:17;99704.81;;;25.39;58.77
35704;BME280;21820;51.112;13.762;2023-06-22T04:00:47;99702.13;;;25.31;58.49
35704;BME280;21820;51.112;13.762;2023-06-22T04:03:14;99707.72;;;25.28;58.97
35704;BME280;21820;51.112;13.762;2023-06-22T04:05:40;99709.69;;;25.26;59.23
35704;BME280;21820;51.112;13.762;2023-06-22T04:08:05;99712.97;;;25.28;58.83
35704;BME280;21820;51.112;13.762;2023-06-22T04:10:31;99718.25;;;25.28;59.17
35704;BME280;21820;51.112;13.762;2023-06-22T04:12:56;99712.97;;;25.28;58.87
35704;BME280;21820;51.112;13.762;2023-06-22T04:15:22;99721.72;;;25.28;58.63
35704;BME280;21820;51.112;13.762;2023-06-22T04:17:47;99737.50;;;25.28;58.68
35704;BME280;21820;51.112;13.762;2023-06-22T04:20:13;99736.66;;;25.28;59.17
35704;BME280;21820;51.112;13.762;2023-06-22T04:22:38;99741.25;;;25.26;58.90
35704;BME280;21820;51.112;13.762;2023-06-22T04:25:06;99739.31;;;25.28;58.73
35704;BME280;21820;51.112;13.762;2023-06-22T04:27:33;99733.38;;;25.26;58.99
35704;BME280;21820;51.112;13.762;2023-06-22T04:30:05;99724.81;;;25.24;58.74
35704;BME280;21820;51.112;13.762;2023-06-22T04:32:32;99725.47;;;25.26;59.36
35704;BME280;21820;51.112;13.762;2023-06-22T04:34:57;99709.00;;;25.16;59.11
35704;BME280;21820;51.112;13.762;2023-06-22T04:37:23;99725.31;;;25.27;58.86
35704;BME280;21820;51.112;13.762;2023-06-22T04:39:49;99724.50;;;25.27;59.43
35704;BME280;21820;51.112;13.762;2023-06-22T04:42:15;99746.19;;;25.29;58.85
35704;BME280;21820;51.112;13.762;2023-06-22T04:44:40;99744.06;;;25.24;59.55
35704;BME280;21820;51.112;13.762;2023-06-22T04:47:07;99753.47;;;25.27;58.85
35704;BME280;21820;51.112;13.762;2023-06-22T04:49:34;99759.34;;;25.29;59.56
35704;BME280;21820;51.112;13.762;2023-06-22T04:52:09;99750.13;;;25.17;59.22
35704;BME280;21820;51.112;13.762;2023-06-22T04:54:36;99767.41;;;25.27;59.40
35704;BME280;21820;51.112;13.762;2023-06-22T04:57:06;99783.88;;;25.29;59.20
35704;BME280;21820;51.112;13.762;2023-06-22T04:59:35;99785.69;;;25.29;59.11
35704;BME280;21820;51.112;13.762;2023-06-22T05:02:01;99793.56;;;25.29;59.27
35704;BME280;21820;51.112;13.762;2023-06-22T05:04:29;99792.78;;;25.28;59.16
35704;BME280;21820;51.112;13.762;2023-06-22T05:06:59;99794.56;;;25.28;59.35
35704;BME280;21820;51.112;13.762;2023-06-22T05:09:25;99773.81;;;25.17;59.39
35704;BME280;21820;51.112;13.762;2023-06-22T05:11:51;99800.81;;;25.27;59.41
35704;BME280;21820;51.112;13.762;2023-06-22T05:14:16;99809.38;;;25.29;59.11
35704;BME280;21820;51.112;13.762;2023-06-22T05:16:42;99810.19;;;25.29;58.87
35704;BME280;21820;51.112;13.762;2023-06-22T05:19:08;99818.25;;;25.28;59.24
35704;BME280;21820;51.112;13.762;2023-06-22T05:21:33;99824.34;;;25.28;59.28
35704;BME280;21820;51.112;13.762;2023-06-22T05:23:59;99815.78;;;25.26;59.41
35704;BME280;21820;51.112;13.762;2023-06-22T05:26:32;99820.22;;;25.26;59.35
35704;BME280;21820;51.112;13.762;2023-06-22T05:28:58;99801.09;;;25.16;59.22
35704;BME280;21820;51.112;13.762;2023-06-22T05:31:23;99809.66;;;25.18;59.33
35704;BME280;21820;51.112;13.762;2023-06-22T05:33:52;99819.91;;;25.29;59.87
35704;BME280;21820;51.112;13.762;2023-06-22T05:36:17;99812.09;;;25.11;60.21
35704;BME280;21820;51.112;13.762;2023-06-22T05:38:45;99804.56;;;25.16;60.13
35704;BME280;21820;51.112;13.762;2023-06-22T05:41:10;99801.06;;;25.08;60.39
35704;BME280;21820;51.112;13.762;2023-06-22T05:43:35;99786.63;;;25.12;60.28
35704;BME280;21820;51.112;13.762;2023-06-22T05:46:01;99783.94;;;25.04;60.24
35704;BME280;21820;51.112;13.762;2023-06-22T05:48:27;99785.25;;;25.08;60.69
35704;BME280;21820;51.112;13.762;2023-06-22T05:50:53;99795.66;;;25.17;60.56
35704;BME280;21820;51.112;13.762;2023-06-22T05:53:19;99786.78;;;25.10;60.45
35704;BME280;21820;51.112;13.762;2023-06-22T05:55:44;99802.91;;;25.15;60.26
35704;BME280;21820;51.112;13.762;2023-06-22T05:58:10;99794.88;;;25.17;60.10
35704;BME280;21820;51.112;13.762;2023-06-22T06:00:35;99796.66;;;25.16;60.18
35704;BME280;21820;51.112;13.762;2023-06-22T06:03:01;99787.59;;;25.19;60.66
35704;BME280;21820;51.112;13.762;2023-06-22T06:05:33;99778.44;;;25.23;60.78
35704;BME280;21820;51.112;13.762;2023-06-22T06:08:00;99775.31;;;25.27;60.39
35704;BME280;21820;51.112;13.762;2023-06-22T06:10:25;99752.28;;;25.21;60.08
35704;BME280;21820;51.112;13.762;2023-06-22T06:12:51;99776.16;;;25.28;60.17
35704;BME280;21820;51.112;13.762;2023-06-22T06:15:17;99767.94;;;25.31;60.45
35704;BME280;21820;51.112;13.762;2023-06-22T06:17:47;99774.03;;;25.31;60.91
35704;BME280;21820;51.112;13.762;2023-06-22T06:20:12;99766.28;;;25.30;59.90
35704;BME280;21820;51.112;13.762;2023-06-22T06:22:38;99755.94;;;25.28;59.96
35704;BME280;21820;51.112;13.762;2023-06-22T06:25:05;99744.25;;;25.31;60.43
35704;BME280;21820;51.112;13.762;2023-06-22T06:27:30;99738.97;;;25.31;60.34
35704;BME280;21820;51.112;13.762;2023-06-22T06:29:56;99718.56;;;25.25;60.25
35704;BME280;21820;51.112;13.762;2023-06-22T06:32:21;99677.44;;;25.24;59.89
35704;BME280;21820;51.112;13.762;2023-06-22T06:34:47;99668.75;;;25.23;60.20
35704;BME280;21820;51.112;13.762;2023-06-22T06:37:12;99677.47;;;25.32;60.51
35704;BME280;21820;51.112;13.762;2023-06-22T06:39:38;99691.28;;;25.34;60.53
35704;BME280;21820;51.112;13.762;2023-06-22T06:42:05;99683.03;;;25.29;60.09
35704;BME280;21820;51.112;13.762;2023-06-22T06:44:30;99673.81;;;25.17;60.11
35704;BME280;21820;51.112;13.762;2023-06-22T06:46:56;99684.38;;;25.33;60.21
35704;BME280;21820;51.112;13.762;2023-06-22T06:49:21;99686.38;;;25.39;59.83
35704;BME280;21820;51.112;13.762;2023-06-22T06:51:46;99676.19;;;25.36;60.13
35704;BME280;21820;51.112;13.762;2023-06-22T06:54:12;99667.47;;;25.35;59.71
35704;BME280;21820;51.112;13.762;2023-06-22T06:56:37;99676.84;;;25.38;60.19
35704;BME280;21820;51.112;13.762;2023-06-22T06:59:03;99652.44;;;25.28;60.24
35704;BME280;21820;51.112;13.762;2023-06-22T07:01:28;99667.97;;;25.39;60.18
35704;BME280;21820;51.112;13.762;2023-06-22T07:03:58;99669.94;;;25.37;60.24
35704;BME280;21820;51.112;13.762;2023-06-22T07:06:23;99669.88;;;25.29;60.33
35704;BME280;21820;51.112;13.762;2023-06-22T07:08:54;99695.59;;;25.35;59.81
35704;BME280;21820;51.112;13.762;2023-06-22T07:11:20;99683.88;;;25.29;60.17
35704;BME280;21820;51.112;13.762;2023-06-22T07:13:45;99697.59;;;25.41;59.63
35704;BME280;21820;51.112;13.762;2023-06-22T07:16:10;99701.22;;;25.40;59.78
35704;BME280;21820;51.112;13.762;2023-06-22T07:18:36;99701.88;;;25.42;60.41
35704;BME280;21820;51.112;13.762;2023-06-22T07:21:01;99699.72;;;25.45;59.71
35704;BME280;21820;51.112;13.762;2023-06-22T07:23:27;99694.00;;;25.50;59.52
35704;BME280;21820;51.112;13.762;2023-06-22T07:25:53;99690.53;;;25.49;59.51
35704;BME280;21820;51.112;13.762;2023-06-22T07:28:18;99694.97;;;25.49;59.71
35704;BME280;21820;51.112;13.762;2023-06-22T07:30:44;99681.78;;;25.49;59.73
35704;BME280;21820;51.112;13.762;2023-06-22T07:33:10;99697.59;;;25.41;59.62
35704;BME280;21820;51.112;13.762;2023-06-22T07:35:35;99705.66;;;25.39;59.95
35704;BME280;21820;51.112;13.762;2023-06-22T07:38:00;99694.59;;;25.36;59.86
35704;BME280;21820;51.112;13.762;2023-06-22T07:40:26;99691.66;;;25.39;60.05
35704;BME280;21820;51.112;13.762;2023-06-22T07:42:51;99687.72;;;25.35;60.24
35704;BME280;21820;51.112;13.762;2023-06-22T07:45:18;99683.38;;;25.34;60.18
35704;BME280;21820;51.112;13.762;2023-06-22T07:47:43;99697.59;;;25.41;59.75
35704;BME280;21820;51.112;13.762;2023-06-22T07:50:09;99689.00;;;25.39;60.31
35704;BME280;21820;51.112;13.762;2023-06-22T07:52:35;99684.59;;;25.39;60.28
35704;BME280;21820;51.112;13.762;2023-06-22T07:55:00;99685.25;;;25.41;59.72
35704;BME280;21820;51.112;13.762;2023-06-22T07:57:27;99690.69;;;25.40;60.05
35704;BME280;21820;51.112;13.762;2023-06-22T07:59:59;99689.53;;;25.42;60.18
35704;BME280;21820;51.112;13.762;2023-06-22T08:02:25;99688.38;;;25.45;60.33
35704;BME280;21820;51.112;13.762;2023-06-22T08:04:50;99693.47;;;25.38;59.47
35704;BME280;21820;51.112;13.762;2023-06-22T08:07:16;99692.97;;;25.35;59.98
35704;BME280;21820;51.112;13.762;2023-06-22T08:09:46;99664.78;;;25.27;59.91
35704;BME280;21820;51.112;13.762;2023-06-22T08:12:12;99677.19;;;25.35;60.03
35704;BME280;21820;51.112;13.762;2023-06-22T08:14:38;99684.91;;;25.36;60.14
35704;BME280;21820;51.112;13.762;2023-06-22T08:17:04;99681.56;;;25.34;60.20
35704;BME280;21820;51.112;13.762;2023-06-22T08:19:29;99682.44;;;25.35;59.89
35704;BME280;21820;51.112;13.762;2023-06-22T08:21:55;99683.38;;;25.34;59.35
35704;BME280;21820;51.112;13.762;2023-06-22T08:24:20;99666.00;;;25.41;59.90
35704;BME280;21820;51.112;13.762;2023-06-22T08:26:45;99651.47;;;25.29;60.30
35704;BME280;21820;51.112;13.762;2023-06-22T08:29:11;99671.59;;;25.38;59.71
35704;BME280;21820;51.112;13.762;2023-06-22T08:31:36;99651.78;;;25.34;60.41
35704;BME280;21820;51.112;13.762;2023-06-22T08:34:01;99668.28;;;25.36;60.06
35704;BME280;21820;51.112;13.762;2023-06-22T08:36:27;99663.97;;;25.27;59.52
35704;BME280;21820;51.112;13.762;2023-06-22T08:38:58;99673.56;;;25.36;59.95
35704;BME280;21820;51.112;13.762;2023-06-22T08:41:26;99673.84;;;25.33;59.47
35704;BME280;21820;51.112;13.762;2023-06-22T08:43:52;99662.31;;;25.34;60.11
35704;BME280;21820;51.112;13.762;2023-06-22T08:46:19;99662.19;;;25.35;59.82
35704;BME280;21820;51.112;13.762;2023-06-22T08:48:48;99666.66;;;25.35;59.90
35704;BME280;21820;51.112;13.762;2023-06-22T08:51:13;99658.25;;;25.39;59.78
35704;BME280;21820;51.112;13.762;2023-06-22T08:53:39;99667.00;;;25.40;59.78
35704;BME280;21820;51.112;13.762;2023-06-22T08:56:04;99663.53;;;25.47;59.81
35704;BME280;21820;51.112;13.762;2023-06-22T08:58:29;99671.25;;;25.41;59.90
35704;BME280;21820;51.112;13.762;2023-06-22T09:00:55;99674.56;;;25.43;59.63
35704;BME280;21820;51.112;13.762;2023-06-22T09:03:20;99662.56;;;25.48;59.37
35704;BME280;21820;51.112;13.762;2023-06-22T09:05:45;99657.78;;;25.52;59.80
35704;BME280;21820;51.112;13.762;2023-06-22T09:08:11;99659.78;;;25.50;59.83
35704;BME280;21820;51.112;13.762;2023-06-22T09:10:37;99653.34;;;25.52;59.65
35704;BME280;21820;51.112;13.762;2023-06-22T09:13:02;99652.50;;;25.52;59.38
35704;BME280;21820;51.112;13.762;2023-06-22T09:15:27;99646.94;;;25.55;59.36
35704;BME280;21820;51.112;13.762;2023-06-22T09:17:53;99658.78;;;25.51;59.83
35704;BME280;21820;51.112;13.762;2023-06-22T09:20:19;99661.72;;;25.48;59.25
35704;BME280;21820;51.112;13.762;2023-06-22T09:22:46;99629.47;;;25.38;59.73
35704;BME280;21820;51.112;13.762;2023-06-22T09:25:14;99646.28;;;25.45;59.34
35704;BME280;21820;51.112;13.762;2023-06-22T09:27:39;99650.38;;;25.47;59.56
35704;BME280;21820;51.112;13.762;2023-06-22T09:30:05;99645.94;;;25.48;59.23
35704;BME280;21820;51.112;13.762;2023-06-22T09:32:30;99641.34;;;25.50;59.56
35704;BME280;21820;51.112;13.762;2023-06-22T09:34:56;99631.44;;;25.52;59.35
35704;BME280;21820;51.112;13.762;2023-06-22T09:37:21;99626.00;;;25.45;59.24
35704;BME280;21820;51.112;13.762;2023-06-22T09:39:46;99639.34;;;25.52;59.47
35704;BME280;21820;51.112;13.762;2023-06-22T09:42:12;99612.50;;;25.40;59.33
35704;BME280;21820;51.112;13.762;2023-06-22T09:44:38;99630.47;;;25.45;59.38
35704;BME280;21820;51.112;13.762;2023-06-22T09:47:04;99637.03;;;25.49;59.34
35704;BME280;21820;51.112;13.762;2023-06-22T09:49:29;99636.72;;;25.52;58.79
35704;BME280;21820;51.112;13.762;2023-06-22T09:51:55;99628.34;;;25.48;59.22
35704;BME280;21820;51.112;13.762;2023-06-22T09:54:20;99625.03;;;25.38;59.02
35704;BME280;21820;51.112;13.762;2023-06-22T09:56:45;99610.38;;;25.36;59.28
35704;BME280;21820;51.112;13.762;2023-06-22T09:59:11;99628.19;;;25.50;59.22
35704;BME280;21820;51.112;13.762;2023-06-22T10:01:36;99620.75;;;25.45;59.38
35704;BME280;21820;51.112;13.762;2023-06-22T10:04:02;99633.28;;;25.51;59.34
35704;BME280;21820;51.112;13.762;2023-06-22T10:06:28;99628.19;;;25.50;59.32
35704;BME280;21820;51.112;13.762;2023-06-22T10:08:53;99622.75;;;25.43;59.37
35704;BME280;21820;51.112;13.762;2023-06-22T10:11:18;99631.56;;;25.34;58.85
35704;BME280;21820;51.112;13.762;2023-06-22T10:13:44;99620.91;;;25.36;58.88
35704;BME280;21820;51.112;13.762;2023-06-22T10:16:09;99615.47;;;25.37;59.32
35704;BME280;21820;51.112;13.762;2023-06-22T10:18:34;99617.31;;;25.45;59.52
35704;BME280;21820;51.112;13.762;2023-06-22T10:21:00;99600.16;;;25.33;59.28
35704;BME280;21820;51.112;13.762;2023-06-22T10:23:25;99619.09;;;25.36;59.26
35704;BME280;21820;51.112;13.762;2023-06-22T10:25:50;99613.69;;;25.46;60.30
35704;BME280;21820;51.112;13.762;2023-06-22T10:28:16;99613.50;;;25.47;59.45
35704;BME280;21820;51.112;13.762;2023-06-22T10:30:42;99589.31;;;25.36;59.51
35704;BME280;21820;51.112;13.762;2023-06-22T10:33:11;99600.34;;;25.39;60.25
35704;BME280;21820;51.112;13.762;2023-06-22T10:35:37;99602.50;;;25.44;59.78
35704;BME280;21820;51.112;13.762;2023-06-22T10:38:03;99597.22;;;25.44;59.43
35704;BME280;21820;51.112;13.762;2023-06-22T10:40:29;99593.13;;;25.49;60.25
35704;BME280;21820;51.112;13.762;2023-06-22T10:42:54;99593.44;;;25.46;59.72
35704;BME280;21820;51.112;13.762;2023-06-22T10:45:20;99583.59;;;25.48;60.12
35704;BME280;21820;51.112;13.762;2023-06-22T10:47:45;99581.75;;;25.49;59.77
35704;BME280;21820;51.112;13.762;2023-06-22T10:50:11;99580.78;;;25.50;59.72
35704;BME280;21820;51.112;13.762;2023-06-22T10:52:37;99562.66;;;25.39;60.15
35704;BME280;21820;51.112;13.762;2023-06-22T10:55:02;99573.53;;;25.52;60.10
35704;BME280;21820;51.112;13.762;2023-06-22T10:57:28;99565.16;;;25.56;59.89
35704;BME280;21820;51.112;13.762;2023-06-22T10:59:53;99561.38;;;25.51;59.83
35704;BME280;21820;51.112;13.762;2023-06-22T11:02:19;99572.22;;;25.40;59.48
35704;BME280;21820;51.112;13.762;2023-06-22T11:04:44;99568.56;;;25.33;59.22
35704;BME280;21820;51.112;13.762;2023-06-22T11:07:09;99567.44;;;25.35;60.17
35704;BME280;21820;51.112;13.762;2023-06-22T11:09:35;99564.66;;;25.37;60.49
35704;BME280;21820;51.112;13.762;2023-06-22T11:12:00;99566.78;;;25.49;60.13
35704;BME280;21820;51.112;13.762;2023-06-22T11:14:26;99566.63;;;25.43;60.03
35704;BME280;21820;51.112;13.762;2023-06-22T11:16:51;99562.84;;;25.45;59.81
35704;BME280;21820;51.112;13.762;2023-06-22T11:19:18;99553.47;;;25.51;60.20
35704;BME280;21820;51.112;13.762;2023-06-22T11:21:43;99561.38;;;25.51;59.99
35704;BME280;21820;51.112;13.762;2023-06-22T11:24:08;99553.78;;;25.56;59.63
35704;BME280;21820;51.112;13.762;2023-06-22T11:26:34;99558.91;;;25.49;59.54
35704;BME280;21820;51.112;13.762;2023-06-22T11:29:00;99555.09;;;25.52;59.71
35704;BME280;21820;51.112;13.762;2023-06-22T11:31:25;99562.69;;;25.55;60.29
35704;BME280;21820;51.112;13.762;2023-06-22T11:33:51;99552.47;;;25.52;60.06
35704;BME280;21820;51.112;13.762;2023-06-22T11:36:17;99552.78;;;25.57;59.72
35704;BME280;21820;51.112;13.762;2023-06-22T11:38:43;99543.25;;;25.56;59.73
35704;BME280;21820;51.112;13.762;2023-06-22T11:41:09;99538.00;;;25.56;59.76
35704;BME280;21820;51.112;13.762;2023-06-22T11:43:35;99536.19;;;25.48;59.90
35704;BME280;21820;51.112;13.762;2023-06-22T11:46:03;99533.06;;;25.53;59.68
35704;BME280;21820;51.112;13.762;2023-06-22T11:48:28;99524.16;;;25.70;59.94
35704;BME280;21820;51.112;13.762;2023-06-22T11:50:54;99531.06;;;25.71;59.60
35704;BME280;21820;51.112;13.762;2023-06-22T11:53:21;99525.31;;;25.67;59.79
35704;BME280;21820;51.112;13.762;2023-06-22T11:55:47;99527.78;;;25.61;59.26
35704;BME280;21820;51.112;13.762;2023-06-22T11:58:12;99521.84;;;25.59;60.13
35704;BME280;21820;51.112;13.762;2023-06-22T12:00:38;99513.28;;;25.73;59.41
35704;BME280;21820;51.112;13.762;2023-06-22T12:03:03;99517.41;;;25.67;58.88
35704;BME280;21820;51.112;13.762;2023-06-22T12:05:29;99508.53;;;25.60;58.87
35704;BME280;21820;51.112;13.762;2023-06-22T12:07:54;99497.19;;;25.60;60.13
35704;BME280;21820;51.112;13.762;2023-06-22T12:10:22;99476.13;;;25.44;59.23
35704;BME280;21820;51.112;13.762;2023-06-22T12:12:48;99493.25;;;25.48;59.16
35704;BME280;21820;51.112;13.762;2023-06-22T12:15:14;99496.38;;;25.51;59.31
35704;BME280;21820;51.112;13.762;2023-06-22T12:17:40;99490.59;;;25.56;59.92
35704;BME280;21820;51.112;13.762;2023-06-22T12:20:06;99488.63;;;25.58;59.48
35704;BME280;21820;51.112;13.762;2023-06-22T12:22:32;99485.97;;;25.66;59.48
35704;BME280;21820;51.112;13.762;2023-06-22T12:24:58;99487.94;;;25.64;59.79
35704;BME280;21820;51.112;13.762;2023-06-22T12:27:24;99492.56;;;25.62;59.65
35704;BME280;21820;51.112;13.762;2023-06-22T12:29:51;99492.56;;;25.62;59.37
35704;BME280;21820;51.112;13.762;2023-06-22T12:32:18;99478.09;;;25.58;59.92
35704;BME280;21820;51.112;13.762;2023-06-22T12:34:43;99474.94;;;25.62;60.04
35704;BME280;21820;51.112;13.762;2023-06-22T12:37:09;99477.44;;;25.56;59.64
35704;BME280;21820;51.112;13.762;2023-06-22T12:39:35;99469.81;;;25.77;59.48
35704;BME280;21820;51.112;13.762;2023-06-22T12:42:01;99436.94;;;25.57;58.83
35704;BME280;21820;51.112;13.762;2023-06-22T12:44:27;99458.81;;;25.65;59.24
35704;BME280;21820;51.112;13.762;2023-06-22T12:46:53;99458.59;;;25.75;59.56
35704;BME280;21820;51.112;13.762;2023-06-22T12:49:18;99461.28;;;25.67;58.96
35704;BME280;21820;51.112;13.762;2023-06-22T12:51:44;99456.66;;;25.69;59.29
35704;BME280;21820;51.112;13.762;2023-06-22T12:54:10;99457.81;;;25.75;59.15